Аэропорт: Певек. Певек

ICAO: UHMP

METAR:
2013/07/19 05:00
UHMP 190500Z 23003MPS 9999 SCT100 12/06 Q1015 NOSIG RMK MT OBSC QFE761/1015 SC06
METAR:
2013/07/19 06:21
TAF UHMP 190440Z 1906/2006 30005MPS 9999 SCT010 BKN100 
      BECMG 1912/1914 15005G10MPS SCT100